Sinai, South Dakota
Current Conditions -  °F | °C
As of 2:30 AM on Saturday 29 Nov 2014 (Local Time) from KMDS Reporting Station
Clear Clear  
Wind Chill: 16°   Ceiling: Unl
Heat Index: 23°   Visibility: 8mi
Dew Point: 23°   Wind: 6mph
Humidity: 100%   Direction: 150°SSE
Pressure: 29.47"   Gusts: NA
Location:  44.24°N, 97.04°W
Report Text: KMDS 290830Z AUTO 15005KT 8SM CLR M05/M05 A2947 RMK AO2
Loading
Personal Weather Stations






























Interactive Weather Map New forecast layout! Learn more

10-Day Weather Forecast

Advertisements
Track Severe Weather on mobile